Royse City's Hourly Summary for Monday, May 14, 2018
Hour Temp
(f)
RH
(%)
Solar Rad.
(MJ/m2)
Rainfall
(in)
Wind
(mph)
5/14/2018 12:00 AM 74 75 0 0 0.26
5/14/2018 1:00 AM 74 74 0 0 1.01
5/14/2018 2:00 AM 74 74 0 0 1.41
5/14/2018 3:00 AM 73 76 0 0 0.89
5/14/2018 4:00 AM 72 81 0 0 0.41
5/14/2018 5:00 AM 71 85 0 0 0.49
5/14/2018 6:00 AM 71 89 0 0 0.61
5/14/2018 7:00 AM 70 95 0.02 0 0.79
5/14/2018 8:00 AM 71 88 0.38 0 0.94
5/14/2018 9:00 AM 75 74 1.1 0 2.15
5/14/2018 10:00 AM 77 70 1.38 0 2.85
5/14/2018 11:00 AM 79 63 2.05 0 3.39
5/14/2018 12:00 PM 81 60 2.27 0 3.47
5/14/2018 1:00 PM 83 55 2.89 0 2.87
5/14/2018 2:00 PM 85 50 3.02 0 3.2
5/14/2018 3:00 PM 85 51 2.69 0 3.15
5/14/2018 4:00 PM 87 47 2.53 0 2.9
5/14/2018 5:00 PM 87 47 2.11 0 2.82
5/14/2018 6:00 PM 85 50 0.74 0 2.54
5/14/2018 7:00 PM 84 54 0.71 0 2.86
5/14/2018 8:00 PM 81 56 0.17 0 1.7
5/14/2018 9:00 PM 78 66 0.01 0 0.72
5/14/2018 10:00 PM 76 72 0 0 0.24
5/14/2018 11:00 PM 76 74 0 0 0.7
Data Summary 77 67 22.07 0.00 1.77